sensor_id;sensor_type;location;lat;lon;timestamp;temperature;humidity
584;HTU21D;27024;54.068;12.116;2022-08-19T00:01:53;22.02;74.61
584;HTU21D;27024;54.068;12.116;2022-08-19T00:04:24;22.11;74.15
584;HTU21D;27024;54.068;12.116;2022-08-19T00:06:52;22.19;73.69
584;HTU21D;27024;54.068;12.116;2022-08-19T00:09:20;22.18;73.68
584;HTU21D;27024;54.068;12.116;2022-08-19T00:11:47;22.07;74.50
584;HTU21D;27024;54.068;12.116;2022-08-19T00:14:16;22.07;74.12
584;HTU21D;27024;54.068;12.116;2022-08-19T00:16:45;22.05;74.19
584;HTU21D;27024;54.068;12.116;2022-08-19T00:19:12;22.04;74.12
584;HTU21D;27024;54.068;12.116;2022-08-19T00:21:39;22.11;73.48
584;HTU21D;27024;54.068;12.116;2022-08-19T00:24:08;22.17;73.03
584;HTU21D;27024;54.068;12.116;2022-08-19T00:26:36;22.19;72.44
584;HTU21D;27024;54.068;12.116;2022-08-19T00:29:05;22.22;72.36
584;HTU21D;27024;54.068;12.116;2022-08-19T00:31:32;22.14;72.82
584;HTU21D;27024;54.068;12.116;2022-08-19T00:33:59;22.11;73.07
584;HTU21D;27024;54.068;12.116;2022-08-19T00:36:26;22.17;72.96
584;HTU21D;27024;54.068;12.116;2022-08-19T00:38:55;22.09;73.45
584;HTU21D;27024;54.068;12.116;2022-08-19T00:41:23;22.10;73.57
584;HTU21D;27024;54.068;12.116;2022-08-19T00:46:28;21.96;74.78
584;HTU21D;27024;54.068;12.116;2022-08-19T00:48:56;21.98;74.59
584;HTU21D;27024;54.068;12.116;2022-08-19T00:51:26;21.90;75.14
584;HTU21D;27024;54.068;12.116;2022-08-19T00:53:55;21.92;75.50
584;HTU21D;27024;54.068;12.116;2022-08-19T00:56:23;21.82;76.18
584;HTU21D;27024;54.068;12.116;2022-08-19T00:58:55;21.88;76.07
584;HTU21D;27024;54.068;12.116;2022-08-19T01:01:22;21.70;76.78
584;HTU21D;27024;54.068;12.116;2022-08-19T01:03:50;21.75;76.74
584;HTU21D;27024;54.068;12.116;2022-08-19T01:06:25;21.69;76.81
584;HTU21D;27024;54.068;12.116;2022-08-19T01:08:54;21.69;76.78
584;HTU21D;27024;54.068;12.116;2022-08-19T01:11:21;21.65;77.08
584;HTU21D;27024;54.068;12.116;2022-08-19T01:13:49;21.53;77.40
584;HTU21D;27024;54.068;12.116;2022-08-19T01:16:18;21.63;77.31
584;HTU21D;27024;54.068;12.116;2022-08-19T01:18:47;21.58;77.30
584;HTU21D;27024;54.068;12.116;2022-08-19T01:23:54;21.51;77.42
584;HTU21D;27024;54.068;12.116;2022-08-19T01:26:23;21.49;77.50
584;HTU21D;27024;54.068;12.116;2022-08-19T01:28:54;21.42;77.82
584;HTU21D;27024;54.068;12.116;2022-08-19T01:31:27;21.39;78.14
584;HTU21D;27024;54.068;12.116;2022-08-19T01:34:00;21.35;78.27
584;HTU21D;27024;54.068;12.116;2022-08-19T01:36:35;21.33;78.32
584;HTU21D;27024;54.068;12.116;2022-08-19T01:39:05;21.29;78.40
584;HTU21D;27024;54.068;12.116;2022-08-19T01:41:33;21.33;78.35
584;HTU21D;27024;54.068;12.116;2022-08-19T01:44:00;21.25;78.50
584;HTU21D;27024;54.068;12.116;2022-08-19T01:46:46;21.25;78.72
584;HTU21D;27024;54.068;12.116;2022-08-19T01:49:16;21.25;78.80
584;HTU21D;27024;54.068;12.116;2022-08-19T01:51:44;21.17;79.20
584;HTU21D;27024;54.068;12.116;2022-08-19T01:54:12;21.27;79.00
584;HTU21D;27024;54.068;12.116;2022-08-19T01:57:01;21.23;79.43
584;HTU21D;27024;54.068;12.116;2022-08-19T01:59:29;21.19;79.56
584;HTU21D;27024;54.068;12.116;2022-08-19T02:01:56;21.08;80.30
584;HTU21D;27024;54.068;12.116;2022-08-19T02:04:23;21.11;80.46
584;HTU21D;27024;54.068;12.116;2022-08-19T02:06:52;21.21;79.93
584;HTU21D;27024;54.068;12.116;2022-08-19T02:09:18;21.06;80.83
584;HTU21D;27024;54.068;12.116;2022-08-19T02:11:45;20.98;81.39
584;HTU21D;27024;54.068;12.116;2022-08-19T02:14:12;21.06;81.10
584;HTU21D;27024;54.068;12.116;2022-08-19T02:16:40;21.05;81.31
584;HTU21D;27024;54.068;12.116;2022-08-19T02:19:07;20.99;81.45
584;HTU21D;27024;54.068;12.116;2022-08-19T02:21:34;21.03;81.61
584;HTU21D;27024;54.068;12.116;2022-08-19T02:24:01;20.94;81.76
584;HTU21D;27024;54.068;12.116;2022-08-19T02:26:28;20.88;82.31
584;HTU21D;27024;54.068;12.116;2022-08-19T02:28:56;20.81;82.45
584;HTU21D;27024;54.068;12.116;2022-08-19T02:31:24;20.73;82.94
584;HTU21D;27024;54.068;12.116;2022-08-19T02:33:52;20.72;83.13
584;HTU21D;27024;54.068;12.116;2022-08-19T02:36:22;20.71;83.17
584;HTU21D;27024;54.068;12.116;2022-08-19T02:38:50;20.76;82.99
584;HTU21D;27024;54.068;12.116;2022-08-19T02:41:29;20.81;82.28
584;HTU21D;27024;54.068;12.116;2022-08-19T02:43:59;20.81;82.26
584;HTU21D;27024;54.068;12.116;2022-08-19T02:46:48;20.79;82.29
584;HTU21D;27024;54.068;12.116;2022-08-19T02:49:18;20.66;82.98
584;HTU21D;27024;54.068;12.116;2022-08-19T02:51:45;20.50;83.98
584;HTU21D;27024;54.068;12.116;2022-08-19T02:54:13;20.65;83.32
584;HTU21D;27024;54.068;12.116;2022-08-19T02:56:41;20.59;83.98
584;HTU21D;27024;54.068;12.116;2022-08-19T02:59:08;20.65;83.84
584;HTU21D;27024;54.068;12.116;2022-08-19T03:01:38;20.83;82.97
584;HTU21D;27024;54.068;12.116;2022-08-19T03:04:08;20.89;82.65
584;HTU21D;27024;54.068;12.116;2022-08-19T03:06:37;20.84;83.00
584;HTU21D;27024;54.068;12.116;2022-08-19T03:09:05;20.77;83.12
584;HTU21D;27024;54.068;12.116;2022-08-19T03:11:32;20.75;83.45
584;HTU21D;27024;54.068;12.116;2022-08-19T03:13:59;20.74;83.51
584;HTU21D;27024;54.068;12.116;2022-08-19T03:16:45;20.79;83.49
584;HTU21D;27024;54.068;12.116;2022-08-19T03:19:13;20.80;83.52
584;HTU21D;27024;54.068;12.116;2022-08-19T03:21:43;20.83;83.48
584;HTU21D;27024;54.068;12.116;2022-08-19T03:24:11;20.81;83.58
584;HTU21D;27024;54.068;12.116;2022-08-19T03:26:45;20.80;83.55
584;HTU21D;27024;54.068;12.116;2022-08-19T03:29:12;20.79;83.68
584;HTU21D;27024;54.068;12.116;2022-08-19T03:31:55;20.83;83.68
584;HTU21D;27024;54.068;12.116;2022-08-19T03:34:28;20.85;83.36
584;HTU21D;27024;54.068;12.116;2022-08-19T03:36:57;20.75;84.03
584;HTU21D;27024;54.068;12.116;2022-08-19T03:39:25;20.64;84.68
584;HTU21D;27024;54.068;12.116;2022-08-19T03:41:53;20.68;84.50
584;HTU21D;27024;54.068;12.116;2022-08-19T03:44:43;20.80;84.13
584;HTU21D;27024;54.068;12.116;2022-08-19T03:47:11;20.80;84.08
584;HTU21D;27024;54.068;12.116;2022-08-19T03:49:43;20.72;84.56
584;HTU21D;27024;54.068;12.116;2022-08-19T03:52:10;20.76;84.73
584;HTU21D;27024;54.068;12.116;2022-08-19T03:54:37;20.81;84.41
584;HTU21D;27024;54.068;12.116;2022-08-19T03:57:08;20.94;84.04
584;HTU21D;27024;54.068;12.116;2022-08-19T03:59:36;20.98;83.89
584;HTU21D;27024;54.068;12.116;2022-08-19T04:02:08;20.99;83.68
584;HTU21D;27024;54.068;12.116;2022-08-19T04:04:41;20.84;84.60
584;HTU21D;27024;54.068;12.116;2022-08-19T04:07:11;20.94;84.26
584;HTU21D;27024;54.068;12.116;2022-08-19T04:09:39;21.06;83.94
584;HTU21D;27024;54.068;12.116;2022-08-19T04:12:06;21.06;83.55
584;HTU21D;27024;54.068;12.116;2022-08-19T04:14:34;21.05;83.62
584;HTU21D;27024;54.068;12.116;2022-08-19T04:17:02;21.08;83.55
584;HTU21D;27024;54.068;12.116;2022-08-19T04:19:32;21.13;83.44
584;HTU21D;27024;54.068;12.116;2022-08-19T04:21:59;21.10;83.86
584;HTU21D;27024;54.068;12.116;2022-08-19T04:24:26;21.17;83.43
584;HTU21D;27024;54.068;12.116;2022-08-19T04:26:53;21.19;83.26
584;HTU21D;27024;54.068;12.116;2022-08-19T04:29:23;21.20;83.15
584;HTU21D;27024;54.068;12.116;2022-08-19T04:31:52;21.24;82.97
584;HTU21D;27024;54.068;12.116;2022-08-19T04:34:22;21.18;83.29
584;HTU21D;27024;54.068;12.116;2022-08-19T04:36:51;21.14;83.73
584;HTU21D;27024;54.068;12.116;2022-08-19T04:39:23;21.13;84.11
584;HTU21D;27024;54.068;12.116;2022-08-19T04:42:11;21.20;83.78
584;HTU21D;27024;54.068;12.116;2022-08-19T04:44:57;21.27;83.55
584;HTU21D;27024;54.068;12.116;2022-08-19T04:47:25;21.25;83.58
584;HTU21D;27024;54.068;12.116;2022-08-19T04:50:13;21.22;83.71
584;HTU21D;27024;54.068;12.116;2022-08-19T04:52:40;21.28;83.52
584;HTU21D;27024;54.068;12.116;2022-08-19T04:55:11;21.33;83.26
584;HTU21D;27024;54.068;12.116;2022-08-19T04:57:38;21.31;83.13
584;HTU21D;27024;54.068;12.116;2022-08-19T05:00:08;21.31;83.22
584;HTU21D;27024;54.068;12.116;2022-08-19T05:02:35;21.35;83.03
584;HTU21D;27024;54.068;12.116;2022-08-19T05:05:03;21.46;82.84
584;HTU21D;27024;54.068;12.116;2022-08-19T05:07:30;21.42;82.85
584;HTU21D;27024;54.068;12.116;2022-08-19T05:09:57;21.39;82.93
584;HTU21D;27024;54.068;12.116;2022-08-19T05:12:25;21.36;83.18
584;HTU21D;27024;54.068;12.116;2022-08-19T05:14:56;21.43;83.01
584;HTU21D;27024;54.068;12.116;2022-08-19T05:17:25;21.46;82.82
584;HTU21D;27024;54.068;12.116;2022-08-19T05:19:57;21.45;82.84
584;HTU21D;27024;54.068;12.116;2022-08-19T05:22:46;21.53;82.42
584;HTU21D;27024;54.068;12.116;2022-08-19T05:25:16;21.57;82.33
584;HTU21D;27024;54.068;12.116;2022-08-19T05:27:45;21.59;82.11
584;HTU21D;27024;54.068;12.116;2022-08-19T05:30:13;21.58;82.03
584;HTU21D;27024;54.068;12.116;2022-08-19T05:32:41;21.59;81.79
584;HTU21D;27024;54.068;12.116;2022-08-19T05:35:09;21.62;81.76
584;HTU21D;27024;54.068;12.116;2022-08-19T05:37:36;21.55;81.87
584;HTU21D;27024;54.068;12.116;2022-08-19T05:40:04;21.59;81.85
584;HTU21D;27024;54.068;12.116;2022-08-19T05:42:31;21.54;82.04
584;HTU21D;27024;54.068;12.116;2022-08-19T05:44:58;21.63;81.49
584;HTU21D;27024;54.068;12.116;2022-08-19T05:47:25;21.76;80.91
584;HTU21D;27024;54.068;12.116;2022-08-19T05:49:52;21.75;80.78
584;HTU21D;27024;54.068;12.116;2022-08-19T05:52:19;21.74;80.86
584;HTU21D;27024;54.068;12.116;2022-08-19T05:54:52;21.77;80.77
584;HTU21D;27024;54.068;12.116;2022-08-19T05:57:23;21.69;81.10
584;HTU21D;27024;54.068;12.116;2022-08-19T05:59:51;21.65;81.26
584;HTU21D;27024;54.068;12.116;2022-08-19T06:02:27;21.61;81.37
584;HTU21D;27024;54.068;12.116;2022-08-19T06:04:54;21.69;81.07
584;HTU21D;27024;54.068;12.116;2022-08-19T06:07:22;21.64;81.10
584;HTU21D;27024;54.068;12.116;2022-08-19T06:09:49;21.83;80.40
584;HTU21D;27024;54.068;12.116;2022-08-19T06:12:31;21.75;80.65
584;HTU21D;27024;54.068;12.116;2022-08-19T06:15:12;21.74;80.85
584;HTU21D;27024;54.068;12.116;2022-08-19T06:17:40;21.74;80.91
584;HTU21D;27024;54.068;12.116;2022-08-19T06:20:11;21.75;81.07
584;HTU21D;27024;54.068;12.116;2022-08-19T06:22:40;21.83;80.38
584;HTU21D;27024;54.068;12.116;2022-08-19T06:25:09;21.89;80.33
584;HTU21D;27024;54.068;12.116;2022-08-19T06:27:36;21.82;80.43
584;HTU21D;27024;54.068;12.116;2022-08-19T06:30:23;21.70;81.16
584;HTU21D;27024;54.068;12.116;2022-08-19T06:32:50;21.80;80.86
584;HTU21D;27024;54.068;12.116;2022-08-19T06:35:18;21.76;80.86
584;HTU21D;27024;54.068;12.116;2022-08-19T06:37:45;21.76;81.17
584;HTU21D;27024;54.068;12.116;2022-08-19T06:40:12;21.75;81.06
584;HTU21D;27024;54.068;12.116;2022-08-19T06:42:39;21.74;81.20
584;HTU21D;27024;54.068;12.116;2022-08-19T06:45:20;21.74;81.10
584;HTU21D;27024;54.068;12.116;2022-08-19T06:47:51;21.73;81.14
584;HTU21D;27024;54.068;12.116;2022-08-19T06:50:23;21.76;81.12
584;HTU21D;27024;54.068;12.116;2022-08-19T06:52:51;21.83;80.93
584;HTU21D;27024;54.068;12.116;2022-08-19T06:55:18;21.76;81.37
584;HTU21D;27024;54.068;12.116;2022-08-19T06:57:46;21.63;82.07
584;HTU21D;27024;54.068;12.116;2022-08-19T07:00:13;21.67;82.13
584;HTU21D;27024;54.068;12.116;2022-08-19T07:02:41;21.58;82.34
584;HTU21D;27024;54.068;12.116;2022-08-19T07:05:18;21.54;83.20
584;HTU21D;27024;54.068;12.116;2022-08-19T07:07:45;21.46;83.90
584;HTU21D;27024;54.068;12.116;2022-08-19T07:10:13;21.50;84.79
584;HTU21D;27024;54.068;12.116;2022-08-19T07:12:40;21.47;84.58
584;HTU21D;27024;54.068;12.116;2022-08-19T07:15:08;21.55;84.58
584;HTU21D;27024;54.068;12.116;2022-08-19T07:17:37;21.46;85.14
584;HTU21D;27024;54.068;12.116;2022-08-19T07:20:06;21.46;84.90
584;HTU21D;27024;54.068;12.116;2022-08-19T07:22:39;21.53;84.59
584;HTU21D;27024;54.068;12.116;2022-08-19T07:25:09;21.49;84.87
584;HTU21D;27024;54.068;12.116;2022-08-19T07:27:36;21.43;85.20
584;HTU21D;27024;54.068;12.116;2022-08-19T07:30:07;21.46;84.92
584;HTU21D;27024;54.068;12.116;2022-08-19T07:32:38;21.51;84.90
584;HTU21D;27024;54.068;12.116;2022-08-19T07:35:05;21.58;84.74
584;HTU21D;27024;54.068;12.116;2022-08-19T07:37:33;21.64;84.35
584;HTU21D;27024;54.068;12.116;2022-08-19T07:40:05;21.58;84.83
584;HTU21D;27024;54.068;12.116;2022-08-19T07:42:32;21.66;84.23
584;HTU21D;27024;54.068;12.116;2022-08-19T07:44:59;21.59;85.00
584;HTU21D;27024;54.068;12.116;2022-08-19T07:47:26;21.57;84.90
584;HTU21D;27024;54.068;12.116;2022-08-19T07:50:16;21.70;84.27
584;HTU21D;27024;54.068;12.116;2022-08-19T07:52:47;21.68;84.57
584;HTU21D;27024;54.068;12.116;2022-08-19T07:55:18;21.62;84.73
584;HTU21D;27024;54.068;12.116;2022-08-19T08:01:50;21.77;84.44
584;HTU21D;27024;54.068;12.116;2022-08-19T08:04:18;21.88;84.35
584;HTU21D;27024;54.068;12.116;2022-08-19T08:07:05;21.85;84.07
584;HTU21D;27024;54.068;12.116;2022-08-19T08:10:05;21.92;84.16
584;HTU21D;27024;54.068;12.116;2022-08-19T08:12:46;21.87;83.81
584;HTU21D;27024;54.068;12.116;2022-08-19T08:15:37;21.95;83.74
584;HTU21D;27024;54.068;12.116;2022-08-19T08:18:10;21.92;84.00
584;HTU21D;27024;54.068;12.116;2022-08-19T08:20:38;21.94;83.55
584;HTU21D;27024;54.068;12.116;2022-08-19T08:23:05;21.98;83.80
584;HTU21D;27024;54.068;12.116;2022-08-19T08:26:01;22.03;83.71
584;HTU21D;27024;54.068;12.116;2022-08-19T08:28:29;22.03;83.70
584;HTU21D;27024;54.068;12.116;2022-08-19T08:30:59;21.88;83.90
584;HTU21D;27024;54.068;12.116;2022-08-19T08:33:28;21.84;83.87
584;HTU21D;27024;54.068;12.116;2022-08-19T08:36:04;21.82;83.54
584;HTU21D;27024;54.068;12.116;2022-08-19T08:38:32;21.87;83.58
584;HTU21D;27024;54.068;12.116;2022-08-19T08:43:48;21.82;83.64
584;HTU21D;27024;54.068;12.116;2022-08-19T08:49:33;21.80;83.52
584;HTU21D;27024;54.068;12.116;2022-08-19T08:52:34;21.78;84.63
584;HTU21D;27024;54.068;12.116;2022-08-19T08:55:18;21.83;84.25
584;HTU21D;27024;54.068;12.116;2022-08-19T08:57:53;21.80;83.97
584;HTU21D;27024;54.068;12.116;2022-08-19T09:00:28;21.89;83.90
584;HTU21D;27024;54.068;12.116;2022-08-19T09:03:00;21.85;84.01
584;HTU21D;27024;54.068;12.116;2022-08-19T09:06:03;21.92;83.95
584;HTU21D;27024;54.068;12.116;2022-08-19T09:11:55;21.97;84.00
584;HTU21D;27024;54.068;12.116;2022-08-19T09:15:09;21.98;83.98
584;HTU21D;27024;54.068;12.116;2022-08-19T09:17:18;21.95;83.71
584;HTU21D;27024;54.068;12.116;2022-08-19T09:22:20;21.81;84.39
584;HTU21D;27024;54.068;12.116;2022-08-19T09:24:53;21.93;84.10
584;HTU21D;27024;54.068;12.116;2022-08-19T09:27:21;21.79;84.17
584;HTU21D;27024;54.068;12.116;2022-08-19T09:30:27;21.84;84.53
584;HTU21D;27024;54.068;12.116;2022-08-19T09:32:57;21.94;84.15
584;HTU21D;27024;54.068;12.116;2022-08-19T09:35:26;21.97;84.21
584;HTU21D;27024;54.068;12.116;2022-08-19T09:37:56;22.07;83.92
584;HTU21D;27024;54.068;12.116;2022-08-19T09:40:28;22.05;83.97
584;HTU21D;27024;54.068;12.116;2022-08-19T09:43:23;22.10;84.05
584;HTU21D;27024;54.068;12.116;2022-08-19T09:46:00;22.20;83.46
584;HTU21D;27024;54.068;12.116;2022-08-19T09:48:27;22.26;82.95
584;HTU21D;27024;54.068;12.116;2022-08-19T09:50:54;22.29;82.65
584;HTU21D;27024;54.068;12.116;2022-08-19T09:53:22;22.40;83.07
584;HTU21D;27024;54.068;12.116;2022-08-19T09:55:51;22.48;82.78
584;HTU21D;27024;54.068;12.116;2022-08-19T09:58:18;22.55;82.90
584;HTU21D;27024;54.068;12.116;2022-08-19T10:00:51;22.56;83.10
584;HTU21D;27024;54.068;12.116;2022-08-19T10:03:20;22.72;82.68
584;HTU21D;27024;54.068;12.116;2022-08-19T10:05:52;22.68;82.43
584;HTU21D;27024;54.068;12.116;2022-08-19T10:08:24;22.69;82.08
584;HTU21D;27024;54.068;12.116;2022-08-19T10:10:52;22.73;81.82
584;HTU21D;27024;54.068;12.116;2022-08-19T10:13:21;22.73;81.81
584;HTU21D;27024;54.068;12.116;2022-08-19T10:15:51;22.90;80.49
584;HTU21D;27024;54.068;12.116;2022-08-19T10:18:21;22.98;80.13
584;HTU21D;27024;54.068;12.116;2022-08-19T10:20:49;23.01;80.11
584;HTU21D;27024;54.068;12.116;2022-08-19T10:23:19;22.97;80.01
584;HTU21D;27024;54.068;12.116;2022-08-19T10:25:47;22.78;80.82
584;HTU21D;27024;54.068;12.116;2022-08-19T10:28:14;22.70;81.55
584;HTU21D;27024;54.068;12.116;2022-08-19T10:30:45;22.79;80.81
584;HTU21D;27024;54.068;12.116;2022-08-19T10:33:12;22.82;81.34
584;HTU21D;27024;54.068;12.116;2022-08-19T10:35:40;22.72;81.85
584;HTU21D;27024;54.068;12.116;2022-08-19T10:38:23;22.65;81.56
584;HTU21D;27024;54.068;12.116;2022-08-19T10:41:05;22.70;81.31
584;HTU21D;27024;54.068;12.116;2022-08-19T10:43:33;22.69;81.20
584;HTU21D;27024;54.068;12.116;2022-08-19T10:46:12;22.66;80.65
584;HTU21D;27024;54.068;12.116;2022-08-19T10:48:43;22.67;80.87
584;HTU21D;27024;54.068;12.116;2022-08-19T10:51:11;22.68;80.89
584;HTU21D;27024;54.068;12.116;2022-08-19T10:53:57;22.92;80.27
584;HTU21D;27024;54.068;12.116;2022-08-19T10:56:25;22.82;79.99
584;HTU21D;27024;54.068;12.116;2022-08-19T10:59:12;22.83;79.98
584;HTU21D;27024;54.068;12.116;2022-08-19T11:01:42;22.81;80.70
584;HTU21D;27024;54.068;12.116;2022-08-19T11:04:10;22.73;80.02
584;HTU21D;27024;54.068;12.116;2022-08-19T11:06:41;22.68;80.14
584;HTU21D;27024;54.068;12.116;2022-08-19T11:09:10;22.75;80.00
584;HTU21D;27024;54.068;12.116;2022-08-19T11:11:38;22.81;80.06
584;HTU21D;27024;54.068;12.116;2022-08-19T11:14:10;22.92;79.50
584;HTU21D;27024;54.068;12.116;2022-08-19T11:16:38;22.61;80.13
584;HTU21D;27024;54.068;12.116;2022-08-19T11:19:07;22.60;81.07
584;HTU21D;27024;54.068;12.116;2022-08-19T11:21:37;22.63;80.43
584;HTU21D;27024;54.068;12.116;2022-08-19T11:24:11;22.58;81.22
584;HTU21D;27024;54.068;12.116;2022-08-19T11:26:39;22.56;80.75
584;HTU21D;27024;54.068;12.116;2022-08-19T11:29:09;22.53;81.23
584;HTU21D;27024;54.068;12.116;2022-08-19T11:31:44;22.49;81.46
584;HTU21D;27024;54.068;12.116;2022-08-19T11:34:14;22.47;82.06
584;HTU21D;27024;54.068;12.116;2022-08-19T11:36:44;22.47;81.71
584;HTU21D;27024;54.068;12.116;2022-08-19T11:39:15;22.48;82.16
584;HTU21D;27024;54.068;12.116;2022-08-19T11:41:42;22.51;81.79
584;HTU21D;27024;54.068;12.116;2022-08-19T11:44:09;22.48;81.36
584;HTU21D;27024;54.068;12.116;2022-08-19T11:46:37;22.37;83.19
584;HTU21D;27024;54.068;12.116;2022-08-19T11:49:05;22.26;83.52
584;HTU21D;27024;54.068;12.116;2022-08-19T11:51:39;22.47;82.15
584;HTU21D;27024;54.068;12.116;2022-08-19T11:54:09;22.47;82.11
584;HTU21D;27024;54.068;12.116;2022-08-19T11:56:37;22.39;82.31
584;HTU21D;27024;54.068;12.116;2022-08-19T11:59:04;22.39;82.28
584;HTU21D;27024;54.068;12.116;2022-08-19T12:01:31;22.42;82.42
584;HTU21D;27024;54.068;12.116;2022-08-19T12:03:58;22.35;82.83
584;HTU21D;27024;54.068;12.116;2022-08-19T12:06:31;22.29;82.72
584;HTU21D;27024;54.068;12.116;2022-08-19T12:09:05;22.33;82.59
584;HTU21D;27024;54.068;12.116;2022-08-19T12:11:32;22.26;82.62
584;HTU21D;27024;54.068;12.116;2022-08-19T12:14:00;22.31;82.82
584;HTU21D;27024;54.068;12.116;2022-08-19T12:16:29;22.32;82.62
584;HTU21D;27024;54.068;12.116;2022-08-19T12:18:58;22.24;82.51
584;HTU21D;27024;54.068;12.116;2022-08-19T12:21:32;22.28;82.36
584;HTU21D;27024;54.068;12.116;2022-08-19T12:24:00;22.18;83.60
584;HTU21D;27024;54.068;12.116;2022-08-19T12:26:29;22.08;84.38
584;HTU21D;27024;54.068;12.116;2022-08-19T12:28:58;22.20;83.66
584;HTU21D;27024;54.068;12.116;2022-08-19T12:31:29;22.18;83.64
584;HTU21D;27024;54.068;12.116;2022-08-19T12:33:56;22.23;83.34
584;HTU21D;27024;54.068;12.116;2022-08-19T12:36:29;22.18;83.45
584;HTU21D;27024;54.068;12.116;2022-08-19T12:38:57;22.25;83.29
584;HTU21D;27024;54.068;12.116;2022-08-19T12:41:25;22.18;84.06
584;HTU21D;27024;54.068;12.116;2022-08-19T12:43:52;22.19;84.22
584;HTU21D;27024;54.068;12.116;2022-08-19T12:46:20;22.23;82.75
584;HTU21D;27024;54.068;12.116;2022-08-19T12:48:51;22.16;82.71
584;HTU21D;27024;54.068;12.116;2022-08-19T12:51:21;22.28;82.68
584;HTU21D;27024;54.068;12.116;2022-08-19T12:53:48;22.27;83.07
584;HTU21D;27024;54.068;12.116;2022-08-19T12:56:16;22.28;82.87
584;HTU21D;27024;54.068;12.116;2022-08-19T12:58:49;22.24;83.23
584;HTU21D;27024;54.068;12.116;2022-08-19T13:01:17;22.10;82.63
584;HTU21D;27024;54.068;12.116;2022-08-19T13:03:49;22.17;82.56
584;HTU21D;27024;54.068;12.116;2022-08-19T13:06:16;22.20;82.70
584;HTU21D;27024;54.068;12.116;2022-08-19T13:08:46;22.28;82.50
584;HTU21D;27024;54.068;12.116;2022-08-19T13:11:19;22.34;83.16
584;HTU21D;27024;54.068;12.116;2022-08-19T13:13:48;22.05;82.75
584;HTU21D;27024;54.068;12.116;2022-08-19T13:16:16;22.18;82.17
584;HTU21D;27024;54.068;12.116;2022-08-19T13:18:45;22.26;82.11
584;HTU21D;27024;54.068;12.116;2022-08-19T13:21:14;22.22;82.09
584;HTU21D;27024;54.068;12.116;2022-08-19T13:23:41;22.23;82.13
584;HTU21D;27024;54.068;12.116;2022-08-19T13:26:09;22.19;82.37
584;HTU21D;27024;54.068;12.116;2022-08-19T13:28:38;22.26;82.73
584;HTU21D;27024;54.068;12.116;2022-08-19T13:31:26;22.19;82.19
584;HTU21D;27024;54.068;12.116;2022-08-19T13:34:12;22.19;82.01
584;HTU21D;27024;54.068;12.116;2022-08-19T13:36:39;22.20;81.44
584;HTU21D;27024;54.068;12.116;2022-08-19T13:39:07;22.17;82.84
584;HTU21D;27024;54.068;12.116;2022-08-19T13:41:36;22.07;83.74
584;HTU21D;27024;54.068;12.116;2022-08-19T13:44:04;22.23;82.78
584;HTU21D;27024;54.068;12.116;2022-08-19T13:46:33;22.23;82.30
584;HTU21D;27024;54.068;12.116;2022-08-19T13:48:59;22.24;81.63
584;HTU21D;27024;54.068;12.116;2022-08-19T13:51:26;22.33;81.58
584;HTU21D;27024;54.068;12.116;2022-08-19T13:53:53;22.24;81.85
584;HTU21D;27024;54.068;12.116;2022-08-19T13:56:21;22.28;82.07
584;HTU21D;27024;54.068;12.116;2022-08-19T13:58:52;22.33;81.97
584;HTU21D;27024;54.068;12.116;2022-08-19T14:01:23;22.34;81.65
584;HTU21D;27024;54.068;12.116;2022-08-19T14:03:51;22.35;82.52
584;HTU21D;27024;54.068;12.116;2022-08-19T14:06:18;22.35;81.59
584;HTU21D;27024;54.068;12.116;2022-08-19T14:08:45;22.21;83.05
584;HTU21D;27024;54.068;12.116;2022-08-19T14:11:12;22.20;83.31
584;HTU21D;27024;54.068;12.116;2022-08-19T14:13:40;22.28;83.00
584;HTU21D;27024;54.068;12.116;2022-08-19T14:16:11;22.25;82.85
584;HTU21D;27024;54.068;12.116;2022-08-19T14:18:41;22.25;82.97
584;HTU21D;27024;54.068;12.116;2022-08-19T14:21:15;22.09;82.91
584;HTU21D;27024;54.068;12.116;2022-08-19T14:23:43;22.11;83.38
584;HTU21D;27024;54.068;12.116;2022-08-19T14:26:13;22.04;82.56
584;HTU21D;27024;54.068;12.116;2022-08-19T14:28:42;22.11;81.94
584;HTU21D;27024;54.068;12.116;2022-08-19T14:31:10;22.09;82.85
584;HTU21D;27024;54.068;12.116;2022-08-19T14:33:37;22.06;83.65
584;HTU21D;27024;54.068;12.116;2022-08-19T14:36:05;22.04;84.36
584;HTU21D;27024;54.068;12.116;2022-08-19T14:38:31;22.01;84.74
584;HTU21D;27024;54.068;12.116;2022-08-19T14:41:11;22.11;84.10
584;HTU21D;27024;54.068;12.116;2022-08-19T14:43:39;22.05;84.05
584;HTU21D;27024;54.068;12.116;2022-08-19T14:46:06;21.90;84.53
584;HTU21D;27024;54.068;12.116;2022-08-19T14:48:36;21.83;84.55
584;HTU21D;27024;54.068;12.116;2022-08-19T14:51:07;21.82;85.18
584;HTU21D;27024;54.068;12.116;2022-08-19T14:53:35;21.79;84.92
584;HTU21D;27024;54.068;12.116;2022-08-19T14:56:08;21.79;85.16
584;HTU21D;27024;54.068;12.116;2022-08-19T14:58:35;21.57;86.41
584;HTU21D;27024;54.068;12.116;2022-08-19T15:01:04;21.74;86.51
584;HTU21D;27024;54.068;12.116;2022-08-19T15:03:31;21.69;85.87
584;HTU21D;27024;54.068;12.116;2022-08-19T15:06:00;21.65;86.00
584;HTU21D;27024;54.068;12.116;2022-08-19T15:08:29;21.57;86.46
584;HTU21D;27024;54.068;12.116;2022-08-19T15:10:57;21.51;86.73
584;HTU21D;27024;54.068;12.116;2022-08-19T15:13:26;21.52;86.80
584;HTU21D;27024;54.068;12.116;2022-08-19T15:15:54;21.48;87.10
584;HTU21D;27024;54.068;12.116;2022-08-19T15:18:22;21.46;87.07
584;HTU21D;27024;54.068;12.116;2022-08-19T15:20:49;21.44;87.44
584;HTU21D;27024;54.068;12.116;2022-08-19T15:23:18;21.46;87.71
584;HTU21D;27024;54.068;12.116;2022-08-19T15:25:45;21.48;87.89
584;HTU21D;27024;54.068;12.116;2022-08-19T15:28:12;21.43;88.19
584;HTU21D;27024;54.068;12.116;2022-08-19T15:30:40;21.35;88.43
584;HTU21D;27024;54.068;12.116;2022-08-19T15:33:07;21.45;88.41
584;HTU21D;27024;54.068;12.116;2022-08-19T15:35:34;21.53;87.54
584;HTU21D;27024;54.068;12.116;2022-08-19T15:38:00;21.55;87.29
584;HTU21D;27024;54.068;12.116;2022-08-19T15:40:27;21.59;87.30
584;HTU21D;27024;54.068;12.116;2022-08-19T15:42:55;21.61;87.19
584;HTU21D;27024;54.068;12.116;2022-08-19T15:45:23;21.65;86.96
584;HTU21D;27024;54.068;12.116;2022-08-19T15:48:00;21.55;87.23
584;HTU21D;27024;54.068;12.116;2022-08-19T15:50:30;21.32;87.90
584;HTU21D;27024;54.068;12.116;2022-08-19T15:53:07;21.33;88.73
584;HTU21D;27024;54.068;12.116;2022-08-19T15:55:40;21.24;88.96
584;HTU21D;27024;54.068;12.116;2022-08-19T15:58:10;21.20;89.80
584;HTU21D;27024;54.068;12.116;2022-08-19T16:00:58;21.20;89.57
584;HTU21D;27024;54.068;12.116;2022-08-19T16:03:51;21.21;89.56
584;HTU21D;27024;54.068;12.116;2022-08-19T16:06:53;21.10;89.81
584;HTU21D;27024;54.068;12.116;2022-08-19T16:09:26;21.23;90.34
584;HTU21D;27024;54.068;12.116;2022-08-19T16:11:55;21.34;89.54
584;HTU21D;27024;54.068;12.116;2022-08-19T16:14:30;21.32;89.07